createdAt,value
2017-01-28T00:00:12.524Z,16.74
2017-01-28T00:01:13.393Z,16.74
2017-01-28T00:02:12.818Z,16.74
2017-01-28T00:03:12.467Z,16.74
2017-01-28T00:04:13.279Z,16.74
2017-01-28T00:05:14.181Z,16.38
2017-01-28T00:06:12.269Z,16.20
2017-01-28T00:07:11.696Z,16.14
2017-01-28T00:08:11.760Z,16.11
2017-01-28T00:09:11.869Z,16.10
2017-01-28T00:10:11.863Z,16.09
2017-01-28T00:11:13.733Z,16.08
2017-01-28T00:12:12.357Z,16.08
2017-01-28T00:13:12.406Z,16.07
2017-01-28T00:14:12.361Z,16.07
2017-01-28T00:15:13.415Z,16.05
2017-01-28T00:16:13.689Z,16.05
2017-01-28T00:17:11.929Z,16.05
2017-01-28T00:18:12.601Z,16.04
2017-01-28T00:19:13.424Z,16.04
2017-01-28T00:20:13.745Z,16.10
2017-01-28T00:21:12.510Z,16.04
2017-01-28T00:22:14.340Z,16.04
2017-01-28T00:23:12.938Z,16.03
2017-01-28T00:24:12.154Z,16.03
2017-01-28T00:25:12.936Z,16.04
2017-01-28T00:26:13.008Z,16.03
2017-01-28T00:27:12.233Z,16.02
2017-01-28T00:28:12.432Z,16.02
2017-01-28T00:29:13.486Z,16.02
2017-01-28T00:30:11.902Z,16.01
2017-01-28T00:31:12.058Z,16.02
2017-01-28T00:32:12.950Z,16.07
2017-01-28T00:33:10.703Z,16.02
2017-01-28T00:34:12.541Z,16.01
2017-01-28T00:35:13.195Z,16.01
2017-01-28T00:36:12.285Z,16.02
2017-01-28T00:37:12.462Z,16.01
2017-01-28T00:38:13.140Z,16.05
2017-01-28T00:39:12.754Z,16.00
2017-01-28T00:40:12.687Z,16.01
2017-01-28T00:41:13.272Z,16.00
2017-01-28T00:42:12.450Z,16.01
2017-01-28T00:43:13.054Z,16.05
2017-01-28T00:44:13.108Z,16.01
2017-01-28T00:45:13.190Z,16.04
2017-01-28T00:46:12.280Z,16.03
2017-01-28T00:47:12.327Z,16.04
2017-01-28T00:48:12.778Z,16.09
2017-01-28T00:49:12.493Z,16.04
2017-01-28T00:50:13.351Z,16.03
2017-01-28T00:51:12.313Z,16.02
2017-01-28T00:52:11.355Z,16.02
2017-01-28T00:53:12.978Z,16.09
2017-01-28T00:54:12.748Z,16.02
2017-01-28T00:55:14.333Z,16.01
2017-01-28T00:56:12.405Z,16.01
2017-01-28T00:57:10.457Z,16.01
2017-01-28T00:58:11.839Z,16.01
2017-01-28T00:59:14.344Z,16.00
2017-01-28T01:00:14.242Z,16.06
2017-01-28T01:01:12.841Z,16.00
2017-01-28T01:02:09.425Z,15.98
2017-01-28T01:03:11.828Z,16.00
2017-01-28T01:04:15.669Z,15.99
2017-01-28T01:05:11.948Z,16.00
2017-01-28T01:06:10.917Z,15.98
2017-01-28T01:07:12.733Z,16.53
2017-01-28T01:08:13.583Z,16.58
2017-01-28T01:09:12.783Z,16.10
2017-01-28T01:10:13.940Z,16.03
2017-01-28T01:11:13.719Z,16.01
2017-01-28T01:12:12.232Z,16.00
2017-01-28T01:13:14.259Z,15.99
2017-01-28T01:14:15.723Z,15.98
2017-01-28T01:15:10.758Z,15.98
2017-01-28T01:16:12.671Z,16.52
2017-01-28T01:17:12.294Z,16.57
2017-01-28T01:18:13.468Z,16.58
2017-01-28T01:19:13.500Z,16.60
2017-01-28T01:20:12.891Z,16.61
2017-01-28T01:21:13.692Z,16.62
2017-01-28T01:22:12.630Z,16.60
2017-01-28T01:23:12.263Z,16.09
2017-01-28T01:24:11.179Z,16.03
2017-01-28T01:25:12.998Z,16.00
2017-01-28T01:26:11.145Z,15.99
2017-01-28T01:27:13.683Z,15.99
2017-01-28T01:28:10.286Z,15.98
2017-01-28T01:29:12.532Z,16.03
2017-01-28T01:30:11.831Z,15.97
2017-01-28T01:31:12.571Z,15.97
2017-01-28T01:32:12.319Z,15.97
2017-01-28T01:33:12.338Z,15.96
2017-01-28T01:34:13.003Z,15.97
2017-01-28T01:35:12.705Z,15.95
2017-01-28T01:36:12.511Z,15.95
2017-01-28T01:37:12.942Z,15.95
2017-01-28T01:38:14.203Z,15.95
2017-01-28T01:39:13.305Z,15.95
2017-01-28T01:40:13.515Z,15.99
2017-01-28T01:41:13.238Z,15.95
2017-01-28T01:42:15.096Z,15.94
2017-01-28T01:43:13.020Z,15.94
2017-01-28T01:44:12.027Z,15.95
2017-01-28T01:45:12.047Z,15.94
2017-01-28T01:46:12.744Z,15.94
2017-01-28T01:47:12.800Z,15.94
2017-01-28T01:48:12.072Z,15.93
2017-01-28T01:49:12.665Z,15.93
2017-01-28T01:50:12.363Z,15.93
2017-01-28T01:51:13.072Z,15.93
2017-01-28T01:52:13.266Z,15.93
2017-01-28T01:53:13.019Z,15.93
2017-01-28T01:54:13.292Z,15.94
2017-01-28T01:55:13.249Z,15.92
2017-01-28T01:56:13.415Z,15.97
2017-01-28T01:57:14.201Z,15.92
2017-01-28T01:58:12.946Z,15.92
2017-01-28T01:59:13.699Z,15.95
2017-01-28T02:00:12.901Z,15.92
2017-01-28T02:01:13.125Z,15.99
2017-01-28T02:02:12.159Z,15.92
2017-01-28T02:03:12.397Z,15.92
2017-01-28T02:04:10.651Z,15.91
2017-01-28T02:05:11.662Z,15.91
2017-01-28T02:06:12.274Z,15.91
2017-01-28T02:07:13.250Z,15.92
2017-01-28T02:08:13.730Z,15.91
2017-01-28T02:09:11.804Z,15.91
2017-01-28T02:10:12.466Z,15.91
2017-01-28T02:11:13.232Z,15.92
2017-01-28T02:12:14.780Z,15.91
2017-01-28T02:13:11.958Z,15.91
2017-01-28T02:14:12.329Z,15.91
2017-01-28T02:15:12.476Z,15.91
2017-01-28T02:16:14.952Z,15.91
2017-01-28T02:17:12.147Z,15.91
2017-01-28T02:18:13.793Z,15.91
2017-01-28T02:19:13.631Z,15.91
2017-01-28T02:20:11.808Z,15.90
2017-01-28T02:21:12.438Z,15.91
2017-01-28T02:22:13.576Z,15.90
2017-01-28T02:23:15.277Z,15.90
2017-01-28T02:24:13.724Z,15.91
2017-01-28T02:25:11.867Z,15.91
2017-01-28T02:26:10.889Z,15.89
2017-01-28T02:27:14.259Z,15.90
2017-01-28T02:28:13.028Z,15.91
2017-01-28T02:29:12.143Z,16.43
2017-01-28T02:30:12.895Z,16.47
2017-01-28T02:31:12.556Z,16.50
2017-01-28T02:32:12.505Z,16.50
2017-01-28T02:33:10.176Z,16.52
2017-01-28T02:34:12.514Z,16.53
2017-01-28T02:35:13.083Z,16.52
2017-01-28T02:36:12.733Z,16.53
2017-01-28T02:37:12.882Z,16.00
2017-01-28T02:38:12.443Z,15.95
2017-01-28T02:39:12.130Z,15.91
2017-01-28T02:40:12.604Z,15.91
2017-01-28T02:41:12.620Z,15.91
2017-01-28T02:42:12.163Z,15.91
2017-01-28T02:43:13.869Z,15.88
2017-01-28T02:44:11.744Z,15.88
2017-01-28T02:45:12.181Z,15.93
2017-01-28T02:46:14.209Z,15.88
2017-01-28T02:47:14.131Z,15.88
2017-01-28T02:48:12.810Z,15.88
2017-01-28T02:49:12.372Z,15.87
2017-01-28T02:50:12.583Z,15.89
2017-01-28T02:51:11.751Z,15.88
2017-01-28T02:52:11.905Z,15.88
2017-01-28T02:53:13.530Z,15.88
2017-01-28T02:54:13.802Z,15.88
2017-01-28T02:55:11.871Z,15.88
2017-01-28T02:56:10.574Z,15.88
2017-01-28T02:57:12.586Z,16.41
2017-01-28T02:58:12.359Z,16.47
2017-01-28T02:59:14.239Z,16.50
2017-01-28T03:00:12.565Z,16.51
2017-01-28T03:01:10.126Z,16.52
2017-01-28T03:02:12.143Z,16.53
2017-01-28T03:03:13.865Z,15.99
2017-01-28T03:04:12.525Z,15.99
2017-01-28T03:05:12.410Z,15.94
2017-01-28T03:06:13.383Z,15.91
2017-01-28T03:07:13.895Z,15.91
2017-01-28T03:08:12.871Z,16.43
2017-01-28T03:09:12.159Z,16.48
2017-01-28T03:10:12.697Z,16.50
2017-01-28T03:11:11.832Z,16.50
2017-01-28T03:12:11.891Z,16.52
2017-01-28T03:13:13.571Z,16.53
2017-01-28T03:14:12.749Z,16.53
2017-01-28T03:15:11.828Z,16.21
2017-01-28T03:16:11.791Z,16.01
2017-01-28T03:17:12.783Z,15.94
2017-01-28T03:18:12.345Z,16.00
2017-01-28T03:19:12.991Z,16.44
2017-01-28T03:20:12.172Z,15.96
2017-01-28T03:21:12.742Z,15.92
2017-01-28T03:22:11.949Z,15.92
2017-01-28T03:23:12.141Z,15.90
2017-01-28T03:24:11.136Z,15.89
2017-01-28T03:25:12.665Z,15.90
2017-01-28T03:26:11.680Z,15.89
2017-01-28T03:27:12.463Z,15.90
2017-01-28T03:28:12.981Z,15.97
2017-01-28T03:29:12.185Z,15.90
2017-01-28T03:30:12.393Z,15.89
2017-01-28T03:31:13.442Z,15.90
2017-01-28T03:32:13.329Z,15.90
2017-01-28T03:33:13.377Z,15.90
2017-01-28T03:34:13.112Z,15.89
2017-01-28T03:35:13.154Z,15.91
2017-01-28T03:36:12.901Z,15.91
2017-01-28T03:37:12.602Z,15.88
2017-01-28T03:38:11.631Z,15.89
2017-01-28T03:39:11.705Z,15.90
2017-01-28T03:40:10.951Z,15.89
2017-01-28T03:41:12.722Z,15.90
2017-01-28T03:42:11.880Z,15.89
2017-01-28T03:43:10.723Z,15.88
2017-01-28T03:44:10.837Z,15.89
2017-01-28T03:45:13.033Z,15.89
2017-01-28T03:46:12.191Z,15.90
2017-01-28T03:47:12.489Z,15.90
2017-01-28T03:48:12.333Z,15.90
2017-01-28T03:49:10.977Z,15.90
2017-01-28T03:50:12.770Z,16.10
2017-01-28T03:51:12.462Z,15.95
2017-01-28T03:52:12.622Z,15.93
2017-01-28T03:53:11.561Z,15.92
2017-01-28T03:54:13.657Z,15.90
2017-01-28T03:55:11.866Z,15.90
2017-01-28T03:56:12.555Z,15.97
2017-01-28T03:57:13.314Z,15.90
2017-01-28T03:58:13.271Z,15.90
2017-01-28T03:59:13.893Z,15.90
2017-01-28T04:00:13.858Z,15.89
2017-01-28T04:01:12.506Z,15.93
2017-01-28T04:02:11.408Z,15.89
2017-01-28T04:03:12.695Z,15.89
2017-01-28T04:04:12.757Z,15.89
2017-01-28T04:05:11.791Z,15.88
2017-01-28T04:06:11.072Z,15.87
2017-01-28T04:07:12.693Z,15.88
2017-01-28T04:08:11.920Z,15.88
2017-01-28T04:09:12.617Z,15.88
2017-01-28T04:10:13.330Z,15.88
2017-01-28T04:11:13.729Z,15.87
2017-01-28T04:12:09.854Z,15.88
2017-01-28T04:13:12.713Z,15.88
2017-01-28T04:14:12.691Z,15.88
2017-01-28T04:15:12.284Z,15.95
2017-01-28T04:16:09.724Z,15.87
2017-01-28T04:17:13.277Z,15.88
2017-01-28T04:18:12.368Z,15.87
2017-01-28T04:19:12.122Z,15.88
2017-01-28T04:20:12.099Z,15.88
2017-01-28T04:21:12.146Z,15.87
2017-01-28T04:22:13.002Z,15.87
2017-01-28T04:23:12.768Z,15.87
2017-01-28T04:24:12.429Z,15.87
2017-01-28T04:25:11.366Z,15.86
2017-01-28T04:26:12.363Z,15.90
2017-01-28T04:27:12.538Z,16.40
2017-01-28T04:28:13.621Z,16.45
2017-01-28T04:29:11.750Z,16.48
2017-01-28T04:30:13.493Z,16.48
2017-01-28T04:31:13.962Z,16.49
2017-01-28T04:32:12.616Z,15.97
2017-01-28T04:33:12.959Z,15.98
2017-01-28T04:34:12.046Z,15.90
2017-01-28T04:35:13.013Z,15.89
2017-01-28T04:36:13.253Z,15.88
2017-01-28T04:37:12.387Z,15.88
2017-01-28T04:38:15.027Z,15.86
2017-01-28T04:39:13.251Z,15.86
2017-01-28T04:40:12.922Z,15.88
2017-01-28T04:41:10.737Z,15.85
2017-01-28T04:42:11.070Z,15.84
2017-01-28T04:43:12.087Z,16.39
2017-01-28T04:44:11.980Z,16.44
2017-01-28T04:45:13.863Z,16.46
2017-01-28T04:46:12.596Z,16.14
2017-01-28T04:47:11.629Z,15.95
2017-01-28T04:48:11.698Z,15.91
2017-01-28T04:49:11.797Z,15.88
2017-01-28T04:50:12.861Z,15.87
2017-01-28T04:51:11.941Z,15.86
2017-01-28T04:52:13.082Z,15.85
2017-01-28T04:53:12.642Z,15.86
2017-01-28T04:54:11.636Z,15.85
2017-01-28T04:55:11.665Z,15.85
2017-01-28T04:56:12.321Z,15.88
2017-01-28T04:57:13.116Z,16.38
2017-01-28T04:58:12.699Z,15.90
2017-01-28T04:59:11.872Z,15.87
2017-01-28T05:00:12.600Z,15.86
2017-01-28T05:01:14.298Z,15.85
2017-01-28T05:02:13.078Z,15.85
2017-01-28T05:03:12.667Z,15.84
2017-01-28T05:04:10.684Z,15.84
2017-01-28T05:05:12.363Z,16.06
2017-01-28T05:06:13.822Z,15.89
2017-01-28T05:07:12.143Z,15.86
2017-01-28T05:08:12.853Z,15.84
2017-01-28T05:09:12.039Z,15.84
2017-01-28T05:10:12.090Z,15.83
2017-01-28T05:11:12.976Z,15.85
2017-01-28T05:12:12.742Z,15.83
2017-01-28T05:13:11.862Z,15.83
2017-01-28T05:14:12.491Z,15.83
2017-01-28T05:15:11.652Z,15.83
2017-01-28T05:16:11.810Z,15.84
2017-01-28T05:17:12.723Z,15.84
2017-01-28T05:18:13.453Z,15.84
2017-01-28T05:19:14.410Z,15.85
2017-01-28T05:20:12.671Z,15.84
2017-01-28T05:21:13.031Z,15.84
2017-01-28T05:22:12.122Z,15.84
2017-01-28T05:23:13.639Z,15.84
2017-01-28T05:24:12.217Z,15.84
2017-01-28T05:25:16.021Z,15.92
2017-01-28T05:26:16.456Z,15.87
2017-01-28T05:27:12.727Z,15.89
2017-01-28T05:28:10.124Z,15.88
2017-01-28T05:29:12.804Z,15.88
2017-01-28T05:30:12.739Z,15.95
2017-01-28T05:31:12.327Z,15.89
2017-01-28T05:32:12.993Z,15.88
2017-01-28T05:33:12.744Z,15.89
2017-01-28T05:34:12.564Z,15.94
2017-01-28T05:35:13.187Z,15.89
2017-01-28T05:36:12.443Z,15.89
2017-01-28T05:37:12.582Z,15.90
2017-01-28T05:38:11.541Z,15.89
2017-01-28T05:39:13.632Z,16.42
2017-01-28T05:40:12.196Z,16.46
2017-01-28T05:41:12.301Z,16.47
2017-01-28T05:42:13.387Z,16.48
2017-01-28T05:43:12.465Z,16.50
2017-01-28T05:44:11.095Z,16.49
2017-01-28T05:45:13.315Z,15.96
2017-01-28T05:46:14.066Z,15.91
2017-01-28T05:47:12.522Z,15.89
2017-01-28T05:48:12.610Z,15.87
2017-01-28T05:49:11.703Z,15.87
2017-01-28T05:50:11.826Z,15.85
2017-01-28T05:51:11.891Z,15.86
2017-01-28T05:52:12.547Z,15.94
2017-01-28T05:53:14.218Z,16.39
2017-01-28T05:54:12.313Z,16.44
2017-01-28T05:55:13.063Z,16.46
2017-01-28T05:56:12.133Z,16.47
2017-01-28T05:57:13.159Z,16.47
2017-01-28T05:58:12.350Z,16.48
2017-01-28T05:59:13.343Z,15.95
2017-01-28T06:00:14.344Z,15.90
2017-01-28T06:01:12.350Z,15.87
2017-01-28T06:02:12.389Z,15.87
2017-01-28T06:03:12.913Z,15.86
2017-01-28T06:04:12.167Z,15.85
2017-01-28T06:05:13.675Z,15.84
2017-01-28T06:06:11.744Z,15.84
2017-01-28T06:07:12.850Z,15.84
2017-01-28T06:08:13.250Z,15.83
2017-01-28T06:09:11.080Z,15.83
2017-01-28T06:10:12.412Z,16.36
2017-01-28T06:11:12.598Z,16.42
2017-01-28T06:12:13.089Z,16.44
2017-01-28T06:13:12.161Z,16.45
2017-01-28T06:14:12.835Z,16.46
2017-01-28T06:15:12.580Z,15.94
2017-01-28T06:16:10.009Z,15.88
2017-01-28T06:17:12.676Z,15.88
2017-01-28T06:18:11.720Z,15.86
2017-01-28T06:19:11.713Z,15.86
2017-01-28T06:20:12.513Z,15.87
2017-01-28T06:21:14.368Z,15.86
2017-01-28T06:22:12.430Z,15.88
2017-01-28T06:23:11.381Z,15.88
2017-01-28T06:24:12.369Z,15.91
2017-01-28T06:25:13.141Z,16.42
2017-01-28T06:26:12.785Z,16.47
2017-01-28T06:27:11.878Z,16.14
2017-01-28T06:28:12.610Z,15.98
2017-01-28T06:29:11.552Z,15.94
2017-01-28T06:30:12.151Z,15.94
2017-01-28T06:31:12.853Z,15.91
2017-01-28T06:32:13.286Z,15.91
2017-01-28T06:33:12.943Z,15.95
2017-01-28T06:34:13.662Z,15.90
2017-01-28T06:35:11.618Z,15.91
2017-01-28T06:36:14.512Z,15.91
2017-01-28T06:37:13.751Z,15.90
2017-01-28T06:38:11.936Z,15.90
2017-01-28T06:39:12.167Z,15.90
2017-01-28T06:40:13.020Z,15.90
2017-01-28T06:41:12.643Z,15.91
2017-01-28T06:42:11.614Z,15.90
2017-01-28T06:43:13.040Z,15.90
2017-01-28T06:44:12.193Z,15.90
2017-01-28T06:45:12.271Z,15.90
2017-01-28T06:46:12.340Z,15.91
2017-01-28T06:47:12.342Z,15.90
2017-01-28T06:48:12.527Z,15.91
2017-01-28T06:49:13.096Z,15.90
2017-01-28T06:50:12.741Z,15.96
2017-01-28T06:51:11.687Z,15.90
2017-01-28T06:52:11.806Z,15.90
2017-01-28T06:53:12.258Z,15.96
2017-01-28T06:54:12.433Z,15.90
2017-01-28T06:55:13.243Z,15.89
2017-01-28T06:56:14.180Z,15.89
2017-01-28T06:57:11.224Z,15.88
2017-01-28T06:58:12.759Z,16.41
2017-01-28T06:59:12.452Z,15.93
2017-01-28T07:00:14.096Z,15.90
2017-01-28T07:01:12.959Z,15.88
2017-01-28T07:02:12.533Z,15.88
2017-01-28T07:03:12.114Z,15.89
2017-01-28T07:04:12.097Z,15.88
2017-01-28T07:05:13.756Z,15.88
2017-01-28T07:06:12.555Z,15.91
2017-01-28T07:07:13.387Z,15.87
2017-01-28T07:08:13.909Z,15.86
2017-01-28T07:09:11.991Z,15.87
2017-01-28T07:10:12.826Z,15.86
2017-01-28T07:11:11.836Z,15.87
2017-01-28T07:12:11.809Z,15.88
2017-01-28T07:13:11.935Z,15.88
2017-01-28T07:14:12.451Z,15.92
2017-01-28T07:15:13.130Z,15.87
2017-01-28T07:16:12.811Z,15.87
2017-01-28T07:17:12.825Z,15.87
2017-01-28T07:18:11.919Z,15.87
2017-01-28T07:19:11.949Z,15.88
2017-01-28T07:20:12.961Z,15.87
2017-01-28T07:21:12.132Z,15.87
2017-01-28T07:22:12.699Z,15.88
2017-01-28T07:23:11.638Z,15.88
2017-01-28T07:24:12.286Z,15.88
2017-01-28T07:25:12.347Z,15.88
2017-01-28T07:26:13.085Z,15.88
2017-01-28T07:27:12.672Z,15.89
2017-01-28T07:28:11.879Z,15.88
2017-01-28T07:29:10.839Z,15.88
2017-01-28T07:30:12.031Z,15.89
2017-01-28T07:31:10.952Z,15.87
2017-01-28T07:32:13.582Z,15.87
2017-01-28T07:33:10.201Z,15.87
2017-01-28T07:34:08.989Z,15.86
2017-01-28T07:35:10.917Z,15.86
2017-01-28T07:36:11.989Z,16.40
2017-01-28T07:37:13.311Z,16.46
2017-01-28T07:38:12.404Z,16.48
2017-01-28T07:39:14.094Z,16.49
2017-01-28T07:40:13.000Z,16.48
2017-01-28T07:41:12.547Z,15.98
2017-01-28T07:42:12.589Z,15.92
2017-01-28T07:43:12.325Z,15.91
2017-01-28T07:44:13.048Z,15.88
2017-01-28T07:45:12.171Z,15.88
2017-01-28T07:46:12.705Z,15.87
2017-01-28T07:47:12.402Z,15.93
2017-01-28T07:48:13.043Z,15.86
2017-01-28T07:49:12.750Z,15.86
2017-01-28T07:50:12.601Z,15.88
2017-01-28T07:51:12.260Z,15.86
2017-01-28T07:52:12.810Z,15.85
2017-01-28T07:53:12.635Z,15.86
2017-01-28T07:54:13.305Z,15.86
2017-01-28T07:55:12.357Z,15.86
2017-01-28T07:56:13.290Z,15.86
2017-01-28T07:57:11.088Z,15.85
2017-01-28T07:58:12.195Z,16.38
2017-01-28T07:59:12.989Z,16.45
2017-01-28T08:00:12.777Z,16.11
2017-01-28T08:01:12.719Z,15.95
2017-01-28T08:02:11.830Z,15.91
2017-01-28T08:03:10.890Z,15.88
2017-01-28T08:04:12.592Z,15.87
2017-01-28T08:05:13.322Z,15.87
2017-01-28T08:06:11.225Z,15.87
2017-01-28T08:07:12.541Z,15.87
2017-01-28T08:08:10.571Z,15.86
2017-01-28T08:09:10.852Z,15.85
2017-01-28T08:10:13.403Z,16.40
2017-01-28T08:11:11.315Z,16.44
2017-01-28T08:12:13.465Z,15.94
2017-01-28T08:13:13.280Z,15.89
2017-01-28T08:14:12.911Z,15.89
2017-01-28T08:15:12.661Z,15.91
2017-01-28T08:16:11.865Z,16.40
2017-01-28T08:17:12.574Z,16.47
2017-01-28T08:18:13.402Z,15.96
2017-01-28T08:19:13.014Z,15.93
2017-01-28T08:20:12.562Z,15.92
2017-01-28T08:21:11.643Z,15.92
2017-01-28T08:22:12.213Z,15.91
2017-01-28T08:23:14.101Z,15.91
2017-01-28T08:24:12.779Z,15.92
2017-01-28T08:25:10.137Z,15.91
2017-01-28T08:26:12.799Z,15.95
2017-01-28T08:27:12.531Z,16.43
2017-01-28T08:28:14.086Z,16.49
2017-01-28T08:29:12.188Z,16.50
2017-01-28T08:30:12.853Z,16.53
2017-01-28T08:31:12.594Z,16.17
2017-01-28T08:32:11.817Z,16.01
2017-01-28T08:33:12.928Z,16.03
2017-01-28T08:34:12.828Z,15.94
2017-01-28T08:35:12.425Z,15.93
2017-01-28T08:36:12.482Z,15.92
2017-01-28T08:37:13.091Z,15.91
2017-01-28T08:38:12.359Z,15.91
2017-01-28T08:39:12.406Z,15.92
2017-01-28T08:40:12.542Z,15.91
2017-01-28T08:41:13.486Z,15.92
2017-01-28T08:42:13.117Z,15.91
2017-01-28T08:43:14.946Z,15.91
2017-01-28T08:44:12.460Z,15.91
2017-01-28T08:45:12.626Z,15.92
2017-01-28T08:46:12.260Z,15.99
2017-01-28T08:47:11.314Z,16.44
2017-01-28T08:48:13.111Z,16.49
2017-01-28T08:49:13.780Z,16.50
2017-01-28T08:50:12.511Z,16.54
2017-01-28T08:51:12.625Z,16.55
2017-01-28T08:52:11.615Z,16.54
2017-01-28T08:53:12.414Z,16.01
2017-01-28T08:54:13.000Z,15.96
2017-01-28T08:55:12.546Z,16.00
2017-01-28T08:56:13.300Z,15.93
2017-01-28T08:57:12.999Z,15.93
2017-01-28T08:58:13.676Z,15.93
2017-01-28T08:59:12.415Z,15.99
2017-01-28T09:00:12.581Z,16.45
2017-01-28T09:01:11.704Z,16.49
2017-01-28T09:02:11.784Z,16.18
2017-01-28T09:03:12.518Z,16.00
2017-01-28T09:04:12.202Z,15.96
2017-01-28T09:05:12.342Z,15.94
2017-01-28T09:06:11.125Z,15.93
2017-01-28T09:07:13.136Z,15.93
2017-01-28T09:08:12.209Z,15.92
2017-01-28T09:09:12.804Z,15.92
2017-01-28T09:10:13.491Z,15.91
2017-01-28T09:11:12.594Z,15.91
2017-01-28T09:12:11.589Z,15.91
2017-01-28T09:13:12.349Z,15.92
2017-01-28T09:14:13.085Z,15.93
2017-01-28T09:15:12.732Z,15.97
2017-01-28T09:16:12.541Z,16.47
2017-01-28T09:17:12.756Z,16.53
2017-01-28T09:18:12.666Z,16.04
2017-01-28T09:19:11.803Z,16.00
2017-01-28T09:20:11.718Z,15.99
2017-01-28T09:21:12.721Z,15.98
2017-01-28T09:22:11.881Z,15.99
2017-01-28T09:23:12.949Z,15.99
2017-01-28T09:24:10.589Z,15.98
2017-01-28T09:25:13.029Z,16.09
2017-01-28T09:26:11.824Z,16.10
2017-01-28T09:27:11.971Z,16.09
2017-01-28T09:28:14.135Z,16.10
2017-01-28T09:29:12.946Z,16.10
2017-01-28T09:30:11.121Z,16.09
2017-01-28T09:31:12.791Z,16.59
2017-01-28T09:32:12.031Z,16.68
2017-01-28T09:33:13.722Z,16.36
2017-01-28T09:34:13.357Z,16.20
2017-01-28T09:35:13.249Z,16.16
2017-01-28T09:36:12.947Z,16.13
2017-01-28T09:37:12.881Z,16.12
2017-01-28T09:38:11.990Z,16.12
2017-01-28T09:39:10.845Z,16.12
2017-01-28T09:40:13.728Z,16.12
2017-01-28T09:41:12.232Z,16.12
2017-01-28T09:42:11.262Z,16.12
2017-01-28T09:43:12.343Z,16.67
2017-01-28T09:44:12.572Z,16.72
2017-01-28T09:45:14.373Z,16.39
2017-01-28T09:46:12.986Z,16.28
2017-01-28T09:47:10.882Z,16.19
2017-01-28T09:48:12.045Z,16.18
2017-01-28T09:49:12.990Z,16.17
2017-01-28T09:50:12.077Z,16.14
2017-01-28T09:51:11.230Z,16.14
2017-01-28T09:52:12.888Z,16.15
2017-01-28T09:53:12.491Z,16.20
2017-01-28T09:54:11.657Z,16.13
2017-01-28T09:55:12.261Z,16.68
2017-01-28T09:56:10.593Z,16.20
2017-01-28T09:57:11.864Z,16.19
2017-01-28T09:58:13.619Z,16.16
2017-01-28T09:59:11.603Z,16.15
2017-01-28T10:00:11.653Z,16.16
2017-01-28T10:01:13.400Z,16.15
2017-01-28T10:02:12.973Z,16.19
2017-01-28T10:03:12.714Z,16.15
2017-01-28T10:04:12.276Z,16.16
2017-01-28T10:05:11.043Z,16.15
2017-01-28T10:06:09.808Z,16.15
2017-01-28T10:07:12.647Z,16.16
2017-01-28T10:08:11.649Z,16.16
2017-01-28T10:09:12.124Z,16.20
2017-01-28T10:10:12.772Z,16.16
2017-01-28T10:11:12.089Z,16.20
2017-01-28T10:12:12.272Z,16.16
2017-01-28T10:13:12.392Z,16.15
2017-01-28T10:14:14.039Z,16.09
2017-01-28T10:15:12.826Z,16.04
2017-01-28T10:16:12.456Z,16.08
2017-01-28T10:17:13.085Z,16.02
2017-01-28T10:18:12.161Z,15.98
2017-01-28T10:19:13.991Z,15.99
2017-01-28T10:20:12.858Z,15.95
2017-01-28T10:21:12.835Z,15.97
2017-01-28T10:22:10.143Z,16.02
2017-01-28T10:23:10.964Z,16.65
2017-01-28T10:24:12.175Z,16.75
2017-01-28T10:25:12.366Z,16.84
2017-01-28T10:26:12.995Z,16.37
2017-01-28T10:27:12.811Z,16.42
2017-01-28T10:28:12.591Z,16.38
2017-01-28T10:29:12.292Z,16.41
2017-01-28T10:30:12.377Z,16.95
2017-01-28T10:31:13.000Z,17.02
2017-01-28T10:32:12.107Z,16.55
2017-01-28T10:33:13.661Z,16.54
2017-01-28T10:34:12.344Z,16.62
2017-01-28T10:35:14.250Z,16.56
2017-01-28T10:36:12.824Z,16.57
2017-01-28T10:37:12.246Z,16.60
2017-01-28T10:38:13.036Z,16.61
2017-01-28T10:39:12.680Z,16.70
2017-01-28T10:40:12.350Z,16.63
2017-01-28T10:41:12.598Z,16.62
2017-01-28T10:42:12.001Z,16.68
2017-01-28T10:43:12.978Z,16.62
2017-01-28T10:44:11.980Z,16.62
2017-01-28T10:45:12.712Z,16.69
2017-01-28T10:46:11.895Z,16.62
2017-01-28T10:47:12.441Z,16.66
2017-01-28T10:48:13.658Z,16.63
2017-01-28T10:49:12.750Z,16.67
2017-01-28T10:50:11.867Z,16.63
2017-01-28T10:51:12.458Z,16.70
2017-01-28T10:52:11.288Z,16.64
2017-01-28T10:53:13.006Z,17.17
2017-01-28T10:54:11.917Z,17.29
2017-01-28T10:55:11.932Z,17.33
2017-01-28T10:56:13.537Z,17.35
2017-01-28T10:57:11.979Z,17.36
2017-01-28T10:58:12.477Z,17.36
2017-01-28T10:59:13.012Z,17.37
2017-01-28T11:00:12.083Z,17.04
2017-01-28T11:01:12.183Z,16.85
2017-01-28T11:02:12.854Z,16.80
2017-01-28T11:03:12.474Z,16.78
2017-01-28T11:04:13.094Z,16.76
2017-01-28T11:05:12.170Z,16.75
2017-01-28T11:06:13.346Z,16.75
2017-01-28T11:07:12.556Z,16.75
2017-01-28T11:08:12.887Z,16.75
2017-01-28T11:09:13.217Z,16.76
2017-01-28T11:10:13.855Z,16.76
2017-01-28T11:11:12.139Z,16.74
2017-01-28T11:12:12.563Z,16.72
2017-01-28T11:13:12.580Z,16.69
2017-01-28T11:14:11.651Z,16.67
2017-01-28T11:15:11.627Z,16.65
2017-01-28T11:16:11.696Z,16.64
2017-01-28T11:17:12.343Z,16.63
2017-01-28T11:18:13.068Z,16.61
2017-01-28T11:19:10.985Z,16.58
2017-01-28T11:20:12.718Z,16.58
2017-01-28T11:21:11.889Z,16.56
2017-01-28T11:22:10.846Z,16.54
2017-01-28T11:23:12.612Z,16.59
2017-01-28T11:24:11.587Z,16.53
2017-01-28T11:25:11.590Z,16.47
2017-01-28T11:26:12.270Z,16.42
2017-01-28T11:27:12.825Z,16.38
2017-01-28T11:28:12.548Z,16.86
2017-01-28T11:29:12.638Z,16.89
2017-01-28T11:30:13.416Z,16.55
2017-01-28T11:31:12.491Z,16.39
2017-01-28T11:32:13.083Z,16.34
2017-01-28T11:33:12.728Z,16.32
2017-01-28T11:34:11.978Z,16.32
2017-01-28T11:35:12.228Z,16.33
2017-01-28T11:36:12.902Z,16.37
2017-01-28T11:37:10.085Z,16.32
2017-01-28T11:38:14.074Z,16.34
2017-01-28T11:39:12.127Z,16.35
2017-01-28T11:40:12.791Z,16.38
2017-01-28T11:41:12.467Z,16.55
2017-01-28T11:42:14.074Z,16.42
2017-01-28T11:43:12.632Z,16.40
2017-01-28T11:44:12.462Z,16.39
2017-01-28T11:45:13.302Z,16.39
2017-01-28T11:46:12.422Z,16.39
2017-01-28T11:47:12.268Z,16.40
2017-01-28T11:48:12.348Z,16.41
2017-01-28T11:49:13.926Z,16.42
2017-01-28T11:50:12.061Z,16.44
2017-01-28T11:51:12.666Z,16.42
2017-01-28T11:52:12.281Z,16.43
2017-01-28T11:53:14.585Z,16.44
2017-01-28T11:54:11.716Z,16.44
2017-01-28T11:55:10.961Z,16.43
2017-01-28T11:56:12.969Z,16.43
2017-01-28T11:57:12.113Z,16.43
2017-01-28T11:58:12.197Z,16.49
2017-01-28T11:59:13.091Z,16.50
2017-01-28T12:00:12.061Z,16.49
2017-01-28T12:01:10.848Z,16.47
2017-01-28T12:02:12.243Z,17.01
2017-01-28T12:03:12.941Z,17.06
2017-01-28T12:04:12.510Z,16.64
2017-01-28T12:05:13.369Z,16.49
2017-01-28T12:06:10.617Z,16.46
2017-01-28T12:07:13.563Z,16.45
2017-01-28T12:08:12.726Z,16.45
2017-01-28T12:09:11.740Z,16.41
2017-01-28T12:10:11.614Z,16.40
2017-01-28T12:11:13.282Z,16.42
2017-01-28T12:12:12.204Z,16.41
2017-01-28T12:13:12.485Z,16.41
2017-01-28T12:14:13.248Z,16.40
2017-01-28T12:15:12.887Z,16.40
2017-01-28T12:16:12.323Z,16.89
2017-01-28T12:17:10.632Z,16.43
2017-01-28T12:18:12.501Z,16.45
2017-01-28T12:19:13.250Z,16.39
2017-01-28T12:20:12.094Z,16.39
2017-01-28T12:21:11.003Z,16.38
2017-01-28T12:22:12.069Z,16.40
2017-01-28T12:23:13.583Z,16.39
2017-01-28T12:24:12.161Z,16.46
2017-01-28T12:25:12.850Z,16.39
2017-01-28T12:26:12.576Z,16.40
2017-01-28T12:27:13.991Z,16.39
2017-01-28T12:28:12.223Z,16.40
2017-01-28T12:29:11.296Z,16.39
2017-01-28T12:30:12.375Z,16.93
2017-01-28T12:31:13.095Z,16.99
2017-01-28T12:32:12.079Z,17.01
2017-01-28T12:33:12.078Z,17.02
2017-01-28T12:34:12.479Z,17.04
2017-01-28T12:35:12.647Z,17.03
2017-01-28T12:36:14.481Z,17.03
2017-01-28T12:37:13.127Z,17.05
2017-01-28T12:38:13.569Z,16.50
2017-01-28T12:39:12.494Z,16.50
2017-01-28T12:40:13.229Z,16.49
2017-01-28T12:41:12.353Z,16.43
2017-01-28T12:42:10.361Z,16.45
2017-01-28T12:43:12.273Z,16.43
2017-01-28T12:44:12.350Z,16.44
2017-01-28T12:45:13.602Z,16.42
2017-01-28T12:46:12.324Z,16.43
2017-01-28T12:47:13.355Z,16.36
2017-01-28T12:48:12.479Z,16.35
2017-01-28T12:49:12.443Z,16.35
2017-01-28T12:50:12.600Z,16.35
2017-01-28T12:51:10.183Z,16.35
2017-01-28T12:52:11.681Z,16.32